1198-й км

Карта отелей и гостиниц, располагающихся рядом с аэропортом 1198-й км :

1198-й км Свердловская область 60° 55' 49.6488" N, 60° 56' 15.3888" E
1198-й км Свердловская область 60° 55' 49.6488" N, 60° 56' 15.3888" E
Код аэродрома ИКАО: 
HDV1
Код аэродрома RU: 
ХДЖ1
Координаты: 
N60.93046° E060.93761°
Превышение над уровнем моря : 
150
Основная полоса: 
35/17
Курс магнитный: 
349,4/169,4
Длина основной ВПП: 
20
Ширина основной ВПП: 
20
Покрытие основной ВПП: 
Твёрдое
Освещение ВПП: 
Нет
Тип: 
Вертодром
Класс аэродрома: 
Принадлежность: 
ГА
Статус: 
Действующий
Сайт: 
E-mail аэродрома: 
Страна: 
Россия
Регион: 
Свердловская область
Город: 
Дополнительная информация: 
Владелец ПП: нет данных.

Найти трансфер

С помощью этой формы Вы можете найти трансфер из аэропорта 1198-й км в город, аэропорт или вокзал:

Карта места

Javascript is required to view this map.

Погода в аэропортах:

Авиационная погода в Якутске

Регион: 
Погода METAR: 
UEEE 270730Z 15003MPS 2100 FU FEW050CB 16/06 Q0997 R23L/09//60 NOSIG RMK QFE739
Время наблюдения: 
2020-09-27T07:30:00Z
Температура C: 
16.0
Точка росы: 
6.0
Направление ветра: 
150
Скорость ветра (узлы): 
6
Метеорологическая видимость: 
1.3
Явления погоды: 
FU
Условия полета: 
IFR
Аэропорт подробнее: 

Авиационная погода в Гостомеле

Регион: 
Погода METAR: 
UKKM 270730Z AUTO 10004MPS 070V130 9999 -SHUP BKN070CB 16/11 Q1006
Время наблюдения: 
2020-09-27T07:30:00Z
Температура C: 
16.0
Точка росы: 
11.0
Направление ветра: 
100
Скорость ветра (узлы): 
8
Метеорологическая видимость: 
6.21
Явления погоды: 
SH UP
Условия полета: 
VFR
Аэропорт подробнее: 

Авиационная погода в Игнатьево

Регион: 
Погода METAR: 
UHBB 270730Z 35003MPS 5000 BR FEW010 BKN033CB 14/13 Q1010 R36/290250 NOSIG RMK QFE740/0987
Время наблюдения: 
2020-09-27T07:30:00Z
Температура C: 
14.0
Точка росы: 
13.0
Направление ветра: 
350
Скорость ветра (узлы): 
6
Метеорологическая видимость: 
3.11
Явления погоды: 
BR
Условия полета: 
MVFR
Аэропорт подробнее: 

Авиационная погода в Мурманске

Регион: 
Погода METAR: 
ULMM 270730Z 14002MPS 1300 1200SW R31/1300D BR SCT003 02/02 Q1031 R31/290060 BECMG 5000 BR SCT016 RMK QBB100 OBST OBSC QFE765
Время наблюдения: 
2020-09-27T07:30:00Z
Температура C: 
2.0
Точка росы: 
2.0
Направление ветра: 
140
Скорость ветра (узлы): 
4
Метеорологическая видимость: 
0.81
Явления погоды: 
BR
Условия полета: 
LIFR
Аэропорт подробнее: